Station: EBSP - 24/07/2021 03:21Z (il y a 6 minutes)
EBSP 240250Z AUTO 13012KT CAVOK 18/12 Q1010
Vent du 130º - 12 kt
Visibilité > 10 km et plafond haut ou pas de nuages significatifs
Température: +18ºC - Point de rosée: +12ºC - QNH: 1010 hPa